sensor_id;sensor_type;location;lat;lon;timestamp;P1;durP1;ratioP1;P2;durP2;ratioP2
75823;SDS011;64457;51.976;9.834;2023-11-21T00:00:08;22.57;;;8.20;;
75823;SDS011;64457;51.976;9.834;2023-11-21T00:02:38;15.73;;;7.80;;
75823;SDS011;64457;51.976;9.834;2023-11-21T00:05:06;18.60;;;8.30;;
75823;SDS011;64457;51.976;9.834;2023-11-21T00:07:35;27.00;;;9.13;;
75823;SDS011;64457;51.976;9.834;2023-11-21T00:10:02;19.47;;;8.10;;
75823;SDS011;64457;51.976;9.834;2023-11-21T00:12:33;21.20;;;8.13;;
75823;SDS011;64457;51.976;9.834;2023-11-21T00:15:02;22.50;;;9.30;;
75823;SDS011;64457;51.976;9.834;2023-11-21T00:17:31;22.50;;;8.97;;
75823;SDS011;64457;51.976;9.834;2023-11-21T00:19:58;17.37;;;8.60;;
75823;SDS011;64457;51.976;9.834;2023-11-21T00:22:26;17.50;;;8.87;;
75823;SDS011;64457;51.976;9.834;2023-11-21T00:24:53;19.37;;;8.60;;
75823;SDS011;64457;51.976;9.834;2023-11-21T00:27:21;17.63;;;9.20;;
75823;SDS011;64457;51.976;9.834;2023-11-21T00:29:48;19.70;;;8.87;;
75823;SDS011;64457;51.976;9.834;2023-11-21T00:32:17;20.73;;;7.70;;
75823;SDS011;64457;51.976;9.834;2023-11-21T00:34:45;18.70;;;8.50;;
75823;SDS011;64457;51.976;9.834;2023-11-21T00:37:13;25.03;;;8.40;;
75823;SDS011;64457;51.976;9.834;2023-11-21T00:39:41;17.13;;;8.40;;
75823;SDS011;64457;51.976;9.834;2023-11-21T00:42:09;21.50;;;8.90;;
75823;SDS011;64457;51.976;9.834;2023-11-21T00:44:37;15.43;;;8.10;;
75823;SDS011;64457;51.976;9.834;2023-11-21T00:47:05;19.57;;;8.40;;
75823;SDS011;64457;51.976;9.834;2023-11-21T00:49:34;16.33;;;7.30;;
75823;SDS011;64457;51.976;9.834;2023-11-21T00:52:02;17.27;;;7.77;;
75823;SDS011;64457;51.976;9.834;2023-11-21T00:54:30;23.83;;;7.83;;
75823;SDS011;64457;51.976;9.834;2023-11-21T00:56:58;19.10;;;8.50;;
75823;SDS011;64457;51.976;9.834;2023-11-21T00:59:26;22.73;;;8.30;;
75823;SDS011;64457;51.976;9.834;2023-11-21T01:01:53;19.27;;;8.63;;
75823;SDS011;64457;51.976;9.834;2023-11-21T01:04:21;20.67;;;9.57;;
75823;SDS011;64457;51.976;9.834;2023-11-21T01:06:50;22.37;;;9.30;;
75823;SDS011;64457;51.976;9.834;2023-11-21T01:09:18;21.77;;;10.00;;
75823;SDS011;64457;51.976;9.834;2023-11-21T01:11:46;19.47;;;9.17;;
75823;SDS011;64457;51.976;9.834;2023-11-21T01:14:13;23.33;;;10.07;;
75823;SDS011;64457;51.976;9.834;2023-11-21T01:16:42;24.00;;;9.27;;
75823;SDS011;64457;51.976;9.834;2023-11-21T01:19:11;25.03;;;9.97;;
75823;SDS011;64457;51.976;9.834;2023-11-21T01:21:38;23.53;;;8.97;;
75823;SDS011;64457;51.976;9.834;2023-11-21T01:24:07;25.60;;;9.20;;
75823;SDS011;64457;51.976;9.834;2023-11-21T01:26:35;17.97;;;8.20;;
75823;SDS011;64457;51.976;9.834;2023-11-21T01:29:03;21.47;;;9.47;;
75823;SDS011;64457;51.976;9.834;2023-11-21T01:31:32;29.20;;;9.30;;
75823;SDS011;64457;51.976;9.834;2023-11-21T01:34:00;21.60;;;8.63;;
75823;SDS011;64457;51.976;9.834;2023-11-21T01:36:29;24.37;;;9.63;;
75823;SDS011;64457;51.976;9.834;2023-11-21T01:38:58;29.10;;;8.77;;
75823;SDS011;64457;51.976;9.834;2023-11-21T01:41:27;16.27;;;8.70;;
75823;SDS011;64457;51.976;9.834;2023-11-21T01:43:56;21.97;;;9.10;;
75823;SDS011;64457;51.976;9.834;2023-11-21T01:46:23;23.50;;;9.80;;
75823;SDS011;64457;51.976;9.834;2023-11-21T01:48:51;25.43;;;9.23;;
75823;SDS011;64457;51.976;9.834;2023-11-21T01:51:19;35.20;;;9.90;;
75823;SDS011;64457;51.976;9.834;2023-11-21T01:53:47;19.40;;;9.20;;
75823;SDS011;64457;51.976;9.834;2023-11-21T01:56:14;19.20;;;8.80;;
75823;SDS011;64457;51.976;9.834;2023-11-21T01:58:43;17.27;;;8.30;;
75823;SDS011;64457;51.976;9.834;2023-11-21T02:01:12;19.47;;;8.63;;
75823;SDS011;64457;51.976;9.834;2023-11-21T02:03:40;29.93;;;10.00;;
75823;SDS011;64457;51.976;9.834;2023-11-21T02:06:07;25.30;;;9.63;;
75823;SDS011;64457;51.976;9.834;2023-11-21T02:08:35;22.43;;;9.67;;
75823;SDS011;64457;51.976;9.834;2023-11-21T02:11:03;21.43;;;8.43;;
75823;SDS011;64457;51.976;9.834;2023-11-21T02:13:32;27.63;;;9.30;;
75823;SDS011;64457;51.976;9.834;2023-11-21T02:16:01;18.03;;;8.63;;
75823;SDS011;64457;51.976;9.834;2023-11-21T02:18:30;30.90;;;11.23;;
75823;SDS011;64457;51.976;9.834;2023-11-21T02:20:58;24.40;;;9.83;;
75823;SDS011;64457;51.976;9.834;2023-11-21T02:23:29;31.07;;;10.13;;
75823;SDS011;64457;51.976;9.834;2023-11-21T02:25:56;21.50;;;9.70;;
75823;SDS011;64457;51.976;9.834;2023-11-21T02:28:24;19.57;;;8.90;;
75823;SDS011;64457;51.976;9.834;2023-11-21T02:30:52;15.00;;;7.93;;
75823;SDS011;64457;51.976;9.834;2023-11-21T02:33:23;27.67;;;12.13;;
75823;SDS011;64457;51.976;9.834;2023-11-21T02:35:50;16.90;;;8.57;;
75823;SDS011;64457;51.976;9.834;2023-11-21T02:38:20;23.70;;;10.10;;
75823;SDS011;64457;51.976;9.834;2023-11-21T02:40:49;23.53;;;9.90;;
75823;SDS011;64457;51.976;9.834;2023-11-21T02:43:16;28.00;;;11.53;;
75823;SDS011;64457;51.976;9.834;2023-11-21T02:45:44;28.00;;;11.30;;
75823;SDS011;64457;51.976;9.834;2023-11-21T02:48:12;23.77;;;10.00;;
75823;SDS011;64457;51.976;9.834;2023-11-21T02:50:39;20.03;;;9.27;;
75823;SDS011;64457;51.976;9.834;2023-11-21T02:53:08;19.13;;;8.43;;
75823;SDS011;64457;51.976;9.834;2023-11-21T02:55:36;20.33;;;8.53;;
75823;SDS011;64457;51.976;9.834;2023-11-21T02:58:05;19.97;;;9.20;;
75823;SDS011;64457;51.976;9.834;2023-11-21T03:00:33;20.30;;;8.53;;
75823;SDS011;64457;51.976;9.834;2023-11-21T03:03:01;15.63;;;7.70;;
75823;SDS011;64457;51.976;9.834;2023-11-21T03:05:29;22.87;;;8.73;;
75823;SDS011;64457;51.976;9.834;2023-11-21T03:07:56;25.10;;;9.60;;
75823;SDS011;64457;51.976;9.834;2023-11-21T03:10:25;18.33;;;8.30;;
75823;SDS011;64457;51.976;9.834;2023-11-21T03:12:52;21.03;;;9.07;;
75823;SDS011;64457;51.976;9.834;2023-11-21T03:15:21;19.17;;;9.10;;
75823;SDS011;64457;51.976;9.834;2023-11-21T03:17:48;29.23;;;9.93;;
75823;SDS011;64457;51.976;9.834;2023-11-21T03:20:16;24.23;;;9.00;;
75823;SDS011;64457;51.976;9.834;2023-11-21T03:22:44;23.37;;;9.20;;
75823;SDS011;64457;51.976;9.834;2023-11-21T03:25:11;22.53;;;7.93;;
75823;SDS011;64457;51.976;9.834;2023-11-21T03:27:39;31.30;;;9.17;;
75823;SDS011;64457;51.976;9.834;2023-11-21T03:30:07;18.37;;;8.60;;
75823;SDS011;64457;51.976;9.834;2023-11-21T03:32:38;23.73;;;9.80;;
75823;SDS011;64457;51.976;9.834;2023-11-21T03:35:06;25.80;;;11.13;;
75823;SDS011;64457;51.976;9.834;2023-11-21T03:37:35;26.50;;;11.70;;
75823;SDS011;64457;51.976;9.834;2023-11-21T03:40:04;27.03;;;11.70;;
75823;SDS011;64457;51.976;9.834;2023-11-21T03:42:34;27.93;;;11.60;;
75823;SDS011;64457;51.976;9.834;2023-11-21T03:45:02;28.40;;;11.97;;
75823;SDS011;64457;51.976;9.834;2023-11-21T03:47:30;19.90;;;9.43;;
75823;SDS011;64457;51.976;9.834;2023-11-21T03:50:00;22.07;;;9.10;;
75823;SDS011;64457;51.976;9.834;2023-11-21T03:52:28;24.37;;;9.40;;
75823;SDS011;64457;51.976;9.834;2023-11-21T03:54:56;22.97;;;10.03;;
75823;SDS011;64457;51.976;9.834;2023-11-21T03:57:24;18.97;;;8.50;;
75823;SDS011;64457;51.976;9.834;2023-11-21T03:59:53;15.13;;;8.40;;
75823;SDS011;64457;51.976;9.834;2023-11-21T04:02:21;21.07;;;8.63;;
75823;SDS011;64457;51.976;9.834;2023-11-21T04:04:50;19.00;;;8.13;;
75823;SDS011;64457;51.976;9.834;2023-11-21T04:07:19;22.33;;;8.77;;
75823;SDS011;64457;51.976;9.834;2023-11-21T04:09:47;19.40;;;8.67;;
75823;SDS011;64457;51.976;9.834;2023-11-21T04:12:15;20.53;;;8.73;;
75823;SDS011;64457;51.976;9.834;2023-11-21T04:14:42;18.43;;;9.33;;
75823;SDS011;64457;51.976;9.834;2023-11-21T04:17:10;23.37;;;9.40;;
75823;SDS011;64457;51.976;9.834;2023-11-21T04:19:39;19.57;;;9.60;;
75823;SDS011;64457;51.976;9.834;2023-11-21T04:22:08;24.87;;;9.83;;
75823;SDS011;64457;51.976;9.834;2023-11-21T04:24:38;21.03;;;9.03;;
75823;SDS011;64457;51.976;9.834;2023-11-21T04:27:07;39.00;;;10.40;;
75823;SDS011;64457;51.976;9.834;2023-11-21T04:29:34;20.97;;;9.50;;
75823;SDS011;64457;51.976;9.834;2023-11-21T04:32:02;19.00;;;9.67;;
75823;SDS011;64457;51.976;9.834;2023-11-21T04:34:30;19.47;;;9.43;;
75823;SDS011;64457;51.976;9.834;2023-11-21T04:36:59;27.77;;;9.87;;
75823;SDS011;64457;51.976;9.834;2023-11-21T04:39:26;32.13;;;10.20;;
75823;SDS011;64457;51.976;9.834;2023-11-21T04:41:56;19.17;;;9.40;;
75823;SDS011;64457;51.976;9.834;2023-11-21T04:44:24;20.33;;;9.20;;
75823;SDS011;64457;51.976;9.834;2023-11-21T04:46:52;30.50;;;10.30;;
75823;SDS011;64457;51.976;9.834;2023-11-21T04:49:19;23.83;;;9.80;;
75823;SDS011;64457;51.976;9.834;2023-11-21T04:51:47;23.93;;;9.00;;
75823;SDS011;64457;51.976;9.834;2023-11-21T04:54:15;27.53;;;11.43;;
75823;SDS011;64457;51.976;9.834;2023-11-21T04:56:42;21.63;;;9.80;;
75823;SDS011;64457;51.976;9.834;2023-11-21T04:59:11;23.40;;;10.00;;
75823;SDS011;64457;51.976;9.834;2023-11-21T05:01:39;21.73;;;9.73;;
75823;SDS011;64457;51.976;9.834;2023-11-21T05:04:06;23.60;;;10.00;;
75823;SDS011;64457;51.976;9.834;2023-11-21T05:06:34;23.83;;;9.63;;
75823;SDS011;64457;51.976;9.834;2023-11-21T05:09:02;23.17;;;10.60;;
75823;SDS011;64457;51.976;9.834;2023-11-21T05:11:30;25.07;;;10.47;;
75823;SDS011;64457;51.976;9.834;2023-11-21T05:13:57;21.97;;;9.10;;
75823;SDS011;64457;51.976;9.834;2023-11-21T05:16:28;24.00;;;11.50;;
75823;SDS011;64457;51.976;9.834;2023-11-21T05:18:56;20.40;;;9.80;;
75823;SDS011;64457;51.976;9.834;2023-11-21T05:21:25;26.97;;;11.03;;
75823;SDS011;64457;51.976;9.834;2023-11-21T05:23:55;29.83;;;10.87;;
75823;SDS011;64457;51.976;9.834;2023-11-21T05:26:22;30.50;;;12.23;;
75823;SDS011;64457;51.976;9.834;2023-11-21T05:28:50;25.30;;;11.40;;
75823;SDS011;64457;51.976;9.834;2023-11-21T05:31:17;25.60;;;11.00;;
75823;SDS011;64457;51.976;9.834;2023-11-21T05:33:47;24.83;;;10.90;;
75823;SDS011;64457;51.976;9.834;2023-11-21T05:36:15;36.00;;;12.47;;
75823;SDS011;64457;51.976;9.834;2023-11-21T05:38:42;30.93;;;10.67;;
75823;SDS011;64457;51.976;9.834;2023-11-21T05:41:11;25.17;;;11.40;;
75823;SDS011;64457;51.976;9.834;2023-11-21T05:43:38;21.53;;;10.70;;
75823;SDS011;64457;51.976;9.834;2023-11-21T05:46:07;19.87;;;10.30;;
75823;SDS011;64457;51.976;9.834;2023-11-21T05:48:35;35.90;;;10.60;;
75823;SDS011;64457;51.976;9.834;2023-11-21T05:51:06;25.90;;;11.00;;
75823;SDS011;64457;51.976;9.834;2023-11-21T05:53:34;21.43;;;10.60;;
75823;SDS011;64457;51.976;9.834;2023-11-21T05:56:01;25.37;;;10.87;;
75823;SDS011;64457;51.976;9.834;2023-11-21T05:58:30;32.80;;;11.93;;
75823;SDS011;64457;51.976;9.834;2023-11-21T06:00:58;22.90;;;10.90;;
75823;SDS011;64457;51.976;9.834;2023-11-21T06:03:25;27.80;;;12.40;;
75823;SDS011;64457;51.976;9.834;2023-11-21T06:05:53;32.20;;;12.50;;
75823;SDS011;64457;51.976;9.834;2023-11-21T06:08:22;25.60;;;11.47;;
75823;SDS011;64457;51.976;9.834;2023-11-21T06:10:49;23.40;;;11.13;;
75823;SDS011;64457;51.976;9.834;2023-11-21T06:13:17;27.87;;;11.03;;
75823;SDS011;64457;51.976;9.834;2023-11-21T06:15:49;21.83;;;10.60;;
75823;SDS011;64457;51.976;9.834;2023-11-21T06:18:17;32.57;;;11.70;;
75823;SDS011;64457;51.976;9.834;2023-11-21T06:20:45;29.83;;;11.00;;
75823;SDS011;64457;51.976;9.834;2023-11-21T06:23:13;21.33;;;10.57;;
75823;SDS011;64457;51.976;9.834;2023-11-21T06:25:43;23.60;;;10.10;;
75823;SDS011;64457;51.976;9.834;2023-11-21T06:28:11;24.17;;;11.33;;
75823;SDS011;64457;51.976;9.834;2023-11-21T06:30:40;24.23;;;10.77;;
75823;SDS011;64457;51.976;9.834;2023-11-21T06:33:09;24.20;;;11.57;;
75823;SDS011;64457;51.976;9.834;2023-11-21T06:35:36;21.60;;;11.90;;
75823;SDS011;64457;51.976;9.834;2023-11-21T06:38:05;29.70;;;12.43;;
75823;SDS011;64457;51.976;9.834;2023-11-21T06:40:34;25.43;;;11.80;;
75823;SDS011;64457;51.976;9.834;2023-11-21T06:43:04;28.77;;;12.40;;
75823;SDS011;64457;51.976;9.834;2023-11-21T06:45:32;30.70;;;12.20;;
75823;SDS011;64457;51.976;9.834;2023-11-21T06:48:00;27.23;;;12.07;;
75823;SDS011;64457;51.976;9.834;2023-11-21T06:50:28;25.90;;;12.33;;
75823;SDS011;64457;51.976;9.834;2023-11-21T06:52:56;25.17;;;12.80;;
75823;SDS011;64457;51.976;9.834;2023-11-21T06:55:25;38.03;;;13.77;;
75823;SDS011;64457;51.976;9.834;2023-11-21T06:57:52;27.20;;;13.30;;
75823;SDS011;64457;51.976;9.834;2023-11-21T07:00:22;37.60;;;13.57;;
75823;SDS011;64457;51.976;9.834;2023-11-21T07:02:50;35.37;;;13.53;;
75823;SDS011;64457;51.976;9.834;2023-11-21T07:05:17;35.47;;;14.67;;
75823;SDS011;64457;51.976;9.834;2023-11-21T07:07:46;32.47;;;12.47;;
75823;SDS011;64457;51.976;9.834;2023-11-21T07:10:14;40.97;;;14.00;;
75823;SDS011;64457;51.976;9.834;2023-11-21T07:12:42;30.93;;;13.40;;
75823;SDS011;64457;51.976;9.834;2023-11-21T07:15:10;26.47;;;12.83;;
75823;SDS011;64457;51.976;9.834;2023-11-21T07:17:40;28.90;;;12.97;;
75823;SDS011;64457;51.976;9.834;2023-11-21T07:20:07;36.60;;;13.33;;
75823;SDS011;64457;51.976;9.834;2023-11-21T07:22:37;33.97;;;13.70;;
75823;SDS011;64457;51.976;9.834;2023-11-21T07:25:05;27.77;;;12.93;;
75823;SDS011;64457;51.976;9.834;2023-11-21T07:27:34;26.43;;;12.20;;
75823;SDS011;64457;51.976;9.834;2023-11-21T07:30:03;25.90;;;13.20;;
75823;SDS011;64457;51.976;9.834;2023-11-21T07:32:33;31.07;;;12.83;;
75823;SDS011;64457;51.976;9.834;2023-11-21T07:35:02;42.23;;;13.27;;
75823;SDS011;64457;51.976;9.834;2023-11-21T07:37:33;30.20;;;13.20;;
75823;SDS011;64457;51.976;9.834;2023-11-21T07:40:00;30.53;;;13.47;;
75823;SDS011;64457;51.976;9.834;2023-11-21T07:42:28;31.53;;;13.87;;
75823;SDS011;64457;51.976;9.834;2023-11-21T07:44:56;29.47;;;13.93;;
75823;SDS011;64457;51.976;9.834;2023-11-21T07:47:23;30.27;;;13.50;;
75823;SDS011;64457;51.976;9.834;2023-11-21T07:49:52;30.37;;;13.90;;
75823;SDS011;64457;51.976;9.834;2023-11-21T07:52:23;39.73;;;14.80;;
75823;SDS011;64457;51.976;9.834;2023-11-21T07:54:51;29.90;;;14.43;;
75823;SDS011;64457;51.976;9.834;2023-11-21T07:57:19;36.70;;;15.00;;
75823;SDS011;64457;51.976;9.834;2023-11-21T07:59:46;29.13;;;14.73;;
75823;SDS011;64457;51.976;9.834;2023-11-21T08:02:14;38.73;;;14.97;;
75823;SDS011;64457;51.976;9.834;2023-11-21T08:04:43;37.13;;;14.80;;
75823;SDS011;64457;51.976;9.834;2023-11-21T08:07:10;35.33;;;15.63;;
75823;SDS011;64457;51.976;9.834;2023-11-21T08:09:40;36.63;;;14.80;;
75823;SDS011;64457;51.976;9.834;2023-11-21T08:12:09;36.40;;;15.30;;
75823;SDS011;64457;51.976;9.834;2023-11-21T08:14:37;35.07;;;14.33;;
75823;SDS011;64457;51.976;9.834;2023-11-21T08:17:06;30.10;;;15.20;;
75823;SDS011;64457;51.976;9.834;2023-11-21T08:19:35;33.43;;;14.70;;
75823;SDS011;64457;51.976;9.834;2023-11-21T08:22:03;41.50;;;15.27;;
75823;SDS011;64457;51.976;9.834;2023-11-21T08:24:33;32.63;;;14.47;;
75823;SDS011;64457;51.976;9.834;2023-11-21T08:27:02;39.50;;;15.23;;
75823;SDS011;64457;51.976;9.834;2023-11-21T08:29:32;33.93;;;15.23;;
75823;SDS011;64457;51.976;9.834;2023-11-21T08:32:01;38.33;;;17.27;;
75823;SDS011;64457;51.976;9.834;2023-11-21T08:34:30;41.70;;;17.33;;
75823;SDS011;64457;51.976;9.834;2023-11-21T08:36:58;38.07;;;16.73;;
75823;SDS011;64457;51.976;9.834;2023-11-21T08:39:26;34.40;;;15.70;;
75823;SDS011;64457;51.976;9.834;2023-11-21T08:41:53;39.80;;;14.73;;
75823;SDS011;64457;51.976;9.834;2023-11-21T08:44:24;36.37;;;16.23;;
75823;SDS011;64457;51.976;9.834;2023-11-21T08:46:52;34.43;;;14.37;;
75823;SDS011;64457;51.976;9.834;2023-11-21T08:49:19;29.97;;;14.80;;
75823;SDS011;64457;51.976;9.834;2023-11-21T08:51:47;37.77;;;16.37;;
75823;SDS011;64457;51.976;9.834;2023-11-21T08:54:15;31.47;;;14.77;;
75823;SDS011;64457;51.976;9.834;2023-11-21T08:56:43;38.00;;;15.27;;
75823;SDS011;64457;51.976;9.834;2023-11-21T08:59:11;43.47;;;15.97;;
75823;SDS011;64457;51.976;9.834;2023-11-21T09:01:42;38.30;;;14.10;;
75823;SDS011;64457;51.976;9.834;2023-11-21T09:04:09;25.57;;;11.53;;
75823;SDS011;64457;51.976;9.834;2023-11-21T09:06:38;16.90;;;6.43;;
75823;SDS011;64457;51.976;9.834;2023-11-21T09:09:06;8.30;;;3.60;;
75823;SDS011;64457;51.976;9.834;2023-11-21T09:11:36;6.80;;;2.70;;
75823;SDS011;64457;51.976;9.834;2023-11-21T09:14:04;7.00;;;2.40;;
75823;SDS011;64457;51.976;9.834;2023-11-21T09:16:32;7.00;;;2.63;;
75823;SDS011;64457;51.976;9.834;2023-11-21T09:19:01;6.17;;;2.47;;
75823;SDS011;64457;51.976;9.834;2023-11-21T09:21:30;5.77;;;2.13;;
75823;SDS011;64457;51.976;9.834;2023-11-21T09:23:59;5.50;;;2.13;;
75823;SDS011;64457;51.976;9.834;2023-11-21T09:26:28;4.70;;;1.90;;
75823;SDS011;64457;51.976;9.834;2023-11-21T09:28:55;6.53;;;2.20;;
75823;SDS011;64457;51.976;9.834;2023-11-21T09:31:24;5.30;;;2.20;;
75823;SDS011;64457;51.976;9.834;2023-11-21T09:33:52;5.30;;;2.00;;
75823;SDS011;64457;51.976;9.834;2023-11-21T09:36:22;5.73;;;2.13;;
75823;SDS011;64457;51.976;9.834;2023-11-21T09:38:53;5.80;;;2.40;;
75823;SDS011;64457;51.976;9.834;2023-11-21T09:41:21;5.10;;;2.20;;
75823;SDS011;64457;51.976;9.834;2023-11-21T09:43:58;6.40;;;2.43;;
75823;SDS011;64457;51.976;9.834;2023-11-21T09:46:26;5.73;;;2.33;;
75823;SDS011;64457;51.976;9.834;2023-11-21T09:48:56;7.83;;;3.40;;
75823;SDS011;64457;51.976;9.834;2023-11-21T09:51:32;5.97;;;2.47;;
75823;SDS011;64457;51.976;9.834;2023-11-21T09:54:03;6.17;;;2.67;;
75823;SDS011;64457;51.976;9.834;2023-11-21T09:56:34;6.10;;;2.90;;
75823;SDS011;64457;51.976;9.834;2023-11-21T09:59:01;6.67;;;3.07;;
75823;SDS011;64457;51.976;9.834;2023-11-21T10:01:32;6.27;;;2.80;;
75823;SDS011;64457;51.976;9.834;2023-11-21T10:04:03;9.20;;;3.07;;
75823;SDS011;64457;51.976;9.834;2023-11-21T10:06:39;8.17;;;2.63;;
75823;SDS011;64457;51.976;9.834;2023-11-21T10:09:08;7.80;;;3.67;;
75823;SDS011;64457;51.976;9.834;2023-11-21T10:11:39;7.30;;;3.03;;
75823;SDS011;64457;51.976;9.834;2023-11-21T10:14:09;7.53;;;3.03;;
75823;SDS011;64457;51.976;9.834;2023-11-21T10:16:40;10.93;;;3.47;;
75823;SDS011;64457;51.976;9.834;2023-11-21T10:19:12;7.37;;;2.97;;
75823;SDS011;64457;51.976;9.834;2023-11-21T10:21:43;7.00;;;3.03;;
75823;SDS011;64457;51.976;9.834;2023-11-21T10:24:10;5.73;;;2.70;;
75823;SDS011;64457;51.976;9.834;2023-11-21T10:26:38;6.73;;;2.80;;
75823;SDS011;64457;51.976;9.834;2023-11-21T10:29:07;8.43;;;3.13;;
75823;SDS011;64457;51.976;9.834;2023-11-21T10:31:37;6.90;;;3.13;;
75823;SDS011;64457;51.976;9.834;2023-11-21T10:34:12;9.73;;;3.47;;
75823;SDS011;64457;51.976;9.834;2023-11-21T10:36:42;10.47;;;4.80;;
75823;SDS011;64457;51.976;9.834;2023-11-21T10:39:13;17.67;;;6.57;;
75823;SDS011;64457;51.976;9.834;2023-11-21T10:41:44;31.33;;;14.50;;
75823;SDS011;64457;51.976;9.834;2023-11-21T10:44:13;24.10;;;7.30;;
75823;SDS011;64457;51.976;9.834;2023-11-21T10:46:45;16.57;;;7.70;;
75823;SDS011;64457;51.976;9.834;2023-11-21T10:49:16;15.67;;;7.00;;
75823;SDS011;64457;51.976;9.834;2023-11-21T10:51:45;20.93;;;9.10;;
75823;SDS011;64457;51.976;9.834;2023-11-21T10:54:19;19.03;;;8.17;;
75823;SDS011;64457;51.976;9.834;2023-11-21T10:56:48;15.83;;;6.83;;
75823;SDS011;64457;51.976;9.834;2023-11-21T10:59:19;20.47;;;8.17;;
75823;SDS011;64457;51.976;9.834;2023-11-21T11:01:50;16.50;;;7.80;;
75823;SDS011;64457;51.976;9.834;2023-11-21T11:04:18;14.87;;;7.17;;
75823;SDS011;64457;51.976;9.834;2023-11-21T11:06:50;17.90;;;7.47;;
75823;SDS011;64457;51.976;9.834;2023-11-21T11:09:22;18.33;;;8.13;;
75823;SDS011;64457;51.976;9.834;2023-11-21T11:11:50;14.83;;;7.30;;
75823;SDS011;64457;51.976;9.834;2023-11-21T11:14:19;17.07;;;8.23;;
75823;SDS011;64457;51.976;9.834;2023-11-21T11:16:52;16.63;;;8.40;;
75823;SDS011;64457;51.976;9.834;2023-11-21T11:19:25;15.50;;;7.83;;
75823;SDS011;64457;51.976;9.834;2023-11-21T11:21:57;15.50;;;8.20;;
75823;SDS011;64457;51.976;9.834;2023-11-21T11:27:34;16.53;;;8.20;;
75823;SDS011;64457;51.976;9.834;2023-11-21T11:30:15;20.53;;;8.33;;
75823;SDS011;64457;51.976;9.834;2023-11-21T11:32:58;14.43;;;7.60;;
75823;SDS011;64457;51.976;9.834;2023-11-21T11:35:38;13.77;;;7.20;;
75823;SDS011;64457;51.976;9.834;2023-11-21T11:38:17;14.67;;;7.40;;
75823;SDS011;64457;51.976;9.834;2023-11-21T11:40:45;14.43;;;6.80;;
75823;SDS011;64457;51.976;9.834;2023-11-21T11:43:16;13.13;;;6.13;;
75823;SDS011;64457;51.976;9.834;2023-11-21T11:45:55;13.10;;;6.37;;
75823;SDS011;64457;51.976;9.834;2023-11-21T11:48:24;13.43;;;6.90;;
75823;SDS011;64457;51.976;9.834;2023-11-21T11:51:01;14.60;;;6.97;;
75823;SDS011;64457;51.976;9.834;2023-11-21T11:53:39;10.80;;;5.37;;
75823;SDS011;64457;51.976;9.834;2023-11-21T11:56:24;10.40;;;5.70;;
75823;SDS011;64457;51.976;9.834;2023-11-21T11:58:56;9.27;;;4.90;;
75823;SDS011;64457;51.976;9.834;2023-11-21T12:01:25;10.93;;;5.90;;
75823;SDS011;64457;51.976;9.834;2023-11-21T12:06:56;12.70;;;6.67;;
75823;SDS011;64457;51.976;9.834;2023-11-21T12:09:30;12.67;;;6.20;;
75823;SDS011;64457;51.976;9.834;2023-11-21T12:11:58;11.87;;;6.33;;
75823;SDS011;64457;51.976;9.834;2023-11-21T12:14:26;16.37;;;7.20;;
75823;SDS011;64457;51.976;9.834;2023-11-21T12:16:54;13.20;;;6.70;;
75823;SDS011;64457;51.976;9.834;2023-11-21T12:19:22;12.73;;;6.70;;
75823;SDS011;64457;51.976;9.834;2023-11-21T12:21:50;13.70;;;6.60;;
75823;SDS011;64457;51.976;9.834;2023-11-21T12:24:18;11.30;;;6.37;;
75823;SDS011;64457;51.976;9.834;2023-11-21T12:26:48;10.43;;;5.80;;
75823;SDS011;64457;51.976;9.834;2023-11-21T12:29:16;19.23;;;7.03;;
75823;SDS011;64457;51.976;9.834;2023-11-21T12:31:46;16.80;;;6.70;;
75823;SDS011;64457;51.976;9.834;2023-11-21T12:34:16;18.13;;;7.37;;
75823;SDS011;64457;51.976;9.834;2023-11-21T12:36:44;13.60;;;6.97;;
75823;SDS011;64457;51.976;9.834;2023-11-21T12:39:12;12.00;;;6.30;;
75823;SDS011;64457;51.976;9.834;2023-11-21T12:41:39;12.27;;;6.03;;
75823;SDS011;64457;51.976;9.834;2023-11-21T12:44:12;11.53;;;6.50;;
75823;SDS011;64457;51.976;9.834;2023-11-21T12:46:41;13.40;;;6.53;;
75823;SDS011;64457;51.976;9.834;2023-11-21T12:49:10;12.90;;;6.47;;
75823;SDS011;64457;51.976;9.834;2023-11-21T12:51:42;14.17;;;6.37;;
75823;SDS011;64457;51.976;9.834;2023-11-21T12:54:12;12.10;;;6.70;;
75823;SDS011;64457;51.976;9.834;2023-11-21T12:56:40;13.10;;;6.47;;
75823;SDS011;64457;51.976;9.834;2023-11-21T12:59:08;16.13;;;6.90;;
75823;SDS011;64457;51.976;9.834;2023-11-21T13:01:42;11.53;;;6.10;;
75823;SDS011;64457;51.976;9.834;2023-11-21T13:04:11;12.13;;;6.30;;
75823;SDS011;64457;51.976;9.834;2023-11-21T13:06:39;12.50;;;6.73;;
75823;SDS011;64457;51.976;9.834;2023-11-21T13:09:08;12.93;;;6.90;;
75823;SDS011;64457;51.976;9.834;2023-11-21T13:11:39;13.63;;;6.77;;
75823;SDS011;64457;51.976;9.834;2023-11-21T13:14:06;11.93;;;6.70;;
75823;SDS011;64457;51.976;9.834;2023-11-21T13:16:36;15.70;;;6.37;;
75823;SDS011;64457;51.976;9.834;2023-11-21T13:19:06;14.33;;;7.07;;
75823;SDS011;64457;51.976;9.834;2023-11-21T13:21:34;13.77;;;6.07;;
75823;SDS011;64457;51.976;9.834;2023-11-21T13:24:02;16.53;;;6.17;;
75823;SDS011;64457;51.976;9.834;2023-11-21T13:26:30;11.73;;;5.60;;
75823;SDS011;64457;51.976;9.834;2023-11-21T13:28:58;11.10;;;6.00;;
75823;SDS011;64457;51.976;9.834;2023-11-21T13:31:26;10.50;;;5.90;;
75823;SDS011;64457;51.976;9.834;2023-11-21T13:33:57;10.00;;;5.23;;
75823;SDS011;64457;51.976;9.834;2023-11-21T13:36:31;10.17;;;5.30;;
75823;SDS011;64457;51.976;9.834;2023-11-21T13:39:00;10.70;;;4.53;;
75823;SDS011;64457;51.976;9.834;2023-11-21T13:41:32;11.17;;;6.30;;
75823;SDS011;64457;51.976;9.834;2023-11-21T13:44:00;13.20;;;5.70;;
75823;SDS011;64457;51.976;9.834;2023-11-21T13:46:39;11.10;;;6.00;;
75823;SDS011;64457;51.976;9.834;2023-11-21T13:49:07;10.20;;;5.23;;
75823;SDS011;64457;51.976;9.834;2023-11-21T13:51:37;9.73;;;5.10;;
75823;SDS011;64457;51.976;9.834;2023-11-21T13:54:08;9.30;;;5.23;;
75823;SDS011;64457;51.976;9.834;2023-11-21T13:56:36;13.23;;;5.27;;
75823;SDS011;64457;51.976;9.834;2023-11-21T13:59:05;11.30;;;5.83;;
75823;SDS011;64457;51.976;9.834;2023-11-21T14:01:44;10.23;;;5.50;;
75823;SDS011;64457;51.976;9.834;2023-11-21T14:04:20;11.83;;;5.50;;
75823;SDS011;64457;51.976;9.834;2023-11-21T14:07:02;10.50;;;5.30;;
75823;SDS011;64457;51.976;9.834;2023-11-21T14:09:45;12.40;;;6.00;;
75823;SDS011;64457;51.976;9.834;2023-11-21T14:12:14;10.23;;;5.37;;
75823;SDS011;64457;51.976;9.834;2023-11-21T14:14:42;11.57;;;5.60;;
75823;SDS011;64457;51.976;9.834;2023-11-21T14:17:10;9.57;;;5.13;;
75823;SDS011;64457;51.976;9.834;2023-11-21T14:19:38;10.20;;;5.53;;
75823;SDS011;64457;51.976;9.834;2023-11-21T14:22:10;14.43;;;5.87;;
75823;SDS011;64457;51.976;9.834;2023-11-21T14:24:39;11.80;;;5.40;;
75823;SDS011;64457;51.976;9.834;2023-11-21T14:27:12;17.70;;;6.20;;
75823;SDS011;64457;51.976;9.834;2023-11-21T14:29:40;13.33;;;5.97;;
75823;SDS011;64457;51.976;9.834;2023-11-21T14:32:10;9.80;;;5.17;;
75823;SDS011;64457;51.976;9.834;2023-11-21T14:34:38;10.20;;;5.20;;
75823;SDS011;64457;51.976;9.834;2023-11-21T14:37:11;10.60;;;5.83;;
75823;SDS011;64457;51.976;9.834;2023-11-21T14:39:39;10.60;;;5.37;;
75823;SDS011;64457;51.976;9.834;2023-11-21T14:42:10;9.80;;;5.47;;
75823;SDS011;64457;51.976;9.834;2023-11-21T14:44:40;12.20;;;5.63;;
75823;SDS011;64457;51.976;9.834;2023-11-21T14:47:08;9.40;;;4.80;;